sensor_id;sensor_type;location;lat;lon;timestamp;pressure;altitude;pressure_sealevel;temperature;humidity
73566;BME280;61846;52.970;-3.168;2023-07-28T00:00:49;99481.87;;;21.56;42.69
73566;BME280;61846;52.970;-3.168;2023-07-28T00:03:14;99482.07;;;21.49;43.49
73566;BME280;61846;52.970;-3.168;2023-07-28T00:05:39;99477.00;;;21.52;42.96
73566;BME280;61846;52.970;-3.168;2023-07-28T00:08:04;99474.73;;;21.66;43.18
73566;BME280;61846;52.970;-3.168;2023-07-28T00:10:30;99476.07;;;21.48;43.40
73566;BME280;61846;52.970;-3.168;2023-07-28T00:12:56;99482.04;;;19.59;47.50
73566;BME280;61846;52.970;-3.168;2023-07-28T00:15:20;99478.55;;;20.87;45.43
73566;BME280;61846;52.970;-3.168;2023-07-28T00:17:46;99476.31;;;20.63;44.79
73566;BME280;61846;52.970;-3.168;2023-07-28T00:20:12;99474.52;;;20.54;44.91
73566;BME280;61846;52.970;-3.168;2023-07-28T00:22:37;99471.88;;;20.77;44.33
73566;BME280;61846;52.970;-3.168;2023-07-28T00:25:02;99465.14;;;21.08;43.69
73566;BME280;61846;52.970;-3.168;2023-07-28T00:27:28;99459.51;;;21.34;43.02
73566;BME280;61846;52.970;-3.168;2023-07-28T00:29:53;99461.93;;;21.40;42.82
73566;BME280;61846;52.970;-3.168;2023-07-28T00:32:19;99466.73;;;20.89;43.50
73566;BME280;61846;52.970;-3.168;2023-07-28T00:34:44;99461.75;;;21.07;43.07
73566;BME280;61846;52.970;-3.168;2023-07-28T00:37:09;99458.99;;;20.99;42.65
73566;BME280;61846;52.970;-3.168;2023-07-28T00:39:35;99458.74;;;21.18;42.88
73566;BME280;61846;52.970;-3.168;2023-07-28T00:42:00;99459.41;;;20.57;43.77
73566;BME280;61846;52.970;-3.168;2023-07-28T00:44:26;99454.00;;;21.06;43.57
73566;BME280;61846;52.970;-3.168;2023-07-28T00:46:51;99451.42;;;20.62;43.58
73566;BME280;61846;52.970;-3.168;2023-07-28T00:49:17;99451.89;;;21.37;43.46
73566;BME280;61846;52.970;-3.168;2023-07-28T00:51:42;99454.16;;;20.96;44.05
73566;BME280;61846;52.970;-3.168;2023-07-28T00:54:07;99454.32;;;20.89;43.62
73566;BME280;61846;52.970;-3.168;2023-07-28T00:56:32;99455.38;;;20.74;43.89
73566;BME280;61846;52.970;-3.168;2023-07-28T00:58:58;99454.83;;;20.36;45.08
73566;BME280;61846;52.970;-3.168;2023-07-28T01:01:24;99445.84;;;20.55;44.44
73566;BME280;61846;52.970;-3.168;2023-07-28T01:03:49;99441.63;;;20.80;43.88
73566;BME280;61846;52.970;-3.168;2023-07-28T01:06:18;99441.87;;;20.52;43.89
73566;BME280;61846;52.970;-3.168;2023-07-28T01:08:45;99443.60;;;20.26;44.53
73566;BME280;61846;52.970;-3.168;2023-07-28T01:11:05;99441.52;;;19.68;45.38
73566;BME280;61846;52.970;-3.168;2023-07-28T01:13:30;99440.36;;;20.10;44.54
73566;BME280;61846;52.970;-3.168;2023-07-28T01:15:55;99437.77;;;20.49;44.18
73566;BME280;61846;52.970;-3.168;2023-07-28T01:18:21;99440.74;;;20.56;44.51
73566;BME280;61846;52.970;-3.168;2023-07-28T01:20:46;99443.93;;;20.09;44.69
73566;BME280;61846;52.970;-3.168;2023-07-28T01:23:18;99444.49;;;18.99;47.74
73566;BME280;61846;52.970;-3.168;2023-07-28T01:25:47;99444.89;;;18.34;49.79
73566;BME280;61846;52.970;-3.168;2023-07-28T01:28:03;99447.90;;;18.19;50.76
73566;BME280;61846;52.970;-3.168;2023-07-28T01:30:28;99450.26;;;18.78;49.74
73566;BME280;61846;52.970;-3.168;2023-07-28T01:32:54;99452.86;;;18.74;48.98
73566;BME280;61846;52.970;-3.168;2023-07-28T01:35:18;99451.23;;;18.86;48.91
73566;BME280;61846;52.970;-3.168;2023-07-28T01:37:44;99451.18;;;18.87;48.86
73566;BME280;61846;52.970;-3.168;2023-07-28T01:40:10;99453.32;;;19.13;48.23
73566;BME280;61846;52.970;-3.168;2023-07-28T01:42:35;99454.76;;;19.41;47.88
73566;BME280;61846;52.970;-3.168;2023-07-28T01:45:00;99451.12;;;18.89;48.43
73566;BME280;61846;52.970;-3.168;2023-07-28T01:47:26;99449.06;;;18.92;48.42
73566;BME280;61846;52.970;-3.168;2023-07-28T01:49:51;99448.77;;;17.57;51.71
73566;BME280;61846;52.970;-3.168;2023-07-28T01:52:16;99454.00;;;17.85;51.41
73566;BME280;61846;52.970;-3.168;2023-07-28T01:54:42;99455.25;;;18.20;50.76
73566;BME280;61846;52.970;-3.168;2023-07-28T01:57:08;99451.75;;;18.51;50.28
73566;BME280;61846;52.970;-3.168;2023-07-28T01:59:33;99448.48;;;18.96;49.25
73566;BME280;61846;52.970;-3.168;2023-07-28T02:01:58;99448.94;;;18.96;48.43
73566;BME280;61846;52.970;-3.168;2023-07-28T02:04:23;99450.82;;;19.18;48.10
73566;BME280;61846;52.970;-3.168;2023-07-28T02:06:49;99449.62;;;19.46;47.85
73566;BME280;61846;52.970;-3.168;2023-07-28T02:09:14;99444.71;;;19.28;47.80
73566;BME280;61846;52.970;-3.168;2023-07-28T02:11:40;99448.41;;;19.09;48.46
73566;BME280;61846;52.970;-3.168;2023-07-28T02:14:05;99453.53;;;17.53;52.31
73566;BME280;61846;52.970;-3.168;2023-07-28T02:16:30;99452.84;;;17.31;53.51
73566;BME280;61846;52.970;-3.168;2023-07-28T02:18:56;99453.35;;;16.23;55.90
73566;BME280;61846;52.970;-3.168;2023-07-28T02:21:21;99452.16;;;16.91;55.30
73566;BME280;61846;52.970;-3.168;2023-07-28T02:23:48;99448.25;;;17.11;54.50
73566;BME280;61846;52.970;-3.168;2023-07-28T02:26:12;99440.83;;;17.25;53.48
73566;BME280;61846;52.970;-3.168;2023-07-28T02:28:38;99434.59;;;17.79;52.14
73566;BME280;61846;52.970;-3.168;2023-07-28T02:31:03;99429.46;;;18.16;50.54
73566;BME280;61846;52.970;-3.168;2023-07-28T02:33:29;99426.46;;;18.19;50.49
73566;BME280;61846;52.970;-3.168;2023-07-28T02:35:54;99428.49;;;18.70;49.12
73566;BME280;61846;52.970;-3.168;2023-07-28T02:38:19;99427.12;;;19.17;48.22
73566;BME280;61846;52.970;-3.168;2023-07-28T02:40:45;99426.58;;;19.07;48.09
73566;BME280;61846;52.970;-3.168;2023-07-28T02:43:10;99430.91;;;17.70;51.67
73566;BME280;61846;52.970;-3.168;2023-07-28T02:45:36;99437.74;;;17.26;53.72
73566;BME280;61846;52.970;-3.168;2023-07-28T02:48:01;99434.43;;;16.93;54.58
73566;BME280;61846;52.970;-3.168;2023-07-28T02:50:27;99427.15;;;17.80;52.99
73566;BME280;61846;52.970;-3.168;2023-07-28T02:52:52;99419.58;;;17.47;52.73
73566;BME280;61846;52.970;-3.168;2023-07-28T02:55:17;99418.16;;;18.36;51.34
73566;BME280;61846;52.970;-3.168;2023-07-28T02:57:43;99416.85;;;18.39;50.77
73566;BME280;61846;52.970;-3.168;2023-07-28T03:00:09;99424.06;;;18.52;50.88
73566;BME280;61846;52.970;-3.168;2023-07-28T03:02:34;99427.74;;;18.74;50.27
73566;BME280;61846;52.970;-3.168;2023-07-28T03:04:59;99421.75;;;18.65;49.43
73566;BME280;61846;52.970;-3.168;2023-07-28T03:07:24;99423.63;;;19.26;48.66
73566;BME280;61846;52.970;-3.168;2023-07-28T03:09:50;99424.81;;;19.57;48.19
73566;BME280;61846;52.970;-3.168;2023-07-28T03:12:15;99423.46;;;19.57;47.50
73566;BME280;61846;52.970;-3.168;2023-07-28T03:14:40;99427.59;;;19.70;47.14
73566;BME280;61846;52.970;-3.168;2023-07-28T03:17:06;99426.74;;;19.12;48.19
73566;BME280;61846;52.970;-3.168;2023-07-28T03:19:31;99433.15;;;18.01;50.41
73566;BME280;61846;52.970;-3.168;2023-07-28T03:21:57;99438.71;;;18.05;49.81
73566;BME280;61846;52.970;-3.168;2023-07-28T03:24:22;99434.49;;;18.92;48.61
73566;BME280;61846;52.970;-3.168;2023-07-28T03:26:48;99434.61;;;19.45;47.37
73566;BME280;61846;52.970;-3.168;2023-07-28T03:29:13;99437.50;;;19.62;47.37
73566;BME280;61846;52.970;-3.168;2023-07-28T03:31:38;99439.22;;;18.92;48.70
73566;BME280;61846;52.970;-3.168;2023-07-28T03:34:04;99442.03;;;18.53;49.78
73566;BME280;61846;52.970;-3.168;2023-07-28T03:36:29;99443.99;;;18.29;49.92
73566;BME280;61846;52.970;-3.168;2023-07-28T03:38:55;99436.63;;;18.78;49.11
73566;BME280;61846;52.970;-3.168;2023-07-28T03:41:20;99432.36;;;18.35;51.10
73566;BME280;61846;52.970;-3.168;2023-07-28T03:43:46;99434.46;;;18.88;49.32
73566;BME280;61846;52.970;-3.168;2023-07-28T03:46:11;99436.68;;;18.98;49.18
73566;BME280;61846;52.970;-3.168;2023-07-28T03:48:36;99442.34;;;17.93;51.09
73566;BME280;61846;52.970;-3.168;2023-07-28T03:51:02;99442.01;;;18.39;50.85
73566;BME280;61846;52.970;-3.168;2023-07-28T03:53:27;99437.46;;;18.38;50.71
73566;BME280;61846;52.970;-3.168;2023-07-28T03:55:53;99438.55;;;17.92;51.23
73566;BME280;61846;52.970;-3.168;2023-07-28T03:58:18;99437.99;;;17.97;51.70
73566;BME280;61846;52.970;-3.168;2023-07-28T04:00:43;99439.67;;;17.25;53.48
73566;BME280;61846;52.970;-3.168;2023-07-28T04:03:09;99444.21;;;17.96;51.04
73566;BME280;61846;52.970;-3.168;2023-07-28T04:05:36;99444.66;;;18.21;50.64
73566;BME280;61846;52.970;-3.168;2023-07-28T04:08:00;99442.99;;;17.58;51.97
73566;BME280;61846;52.970;-3.168;2023-07-28T04:10:25;99439.23;;;17.92;51.82
73566;BME280;61846;52.970;-3.168;2023-07-28T04:12:50;99443.03;;;17.71;51.31
73566;BME280;61846;52.970;-3.168;2023-07-28T04:15:16;99445.31;;;16.64;53.85
73566;BME280;61846;52.970;-3.168;2023-07-28T04:17:41;99445.18;;;18.26;50.23
73566;BME280;61846;52.970;-3.168;2023-07-28T04:20:08;99449.87;;;18.55;50.78
73566;BME280;61846;52.970;-3.168;2023-07-28T04:22:32;99449.71;;;16.13;55.24
73566;BME280;61846;52.970;-3.168;2023-07-28T04:24:58;99454.21;;;17.96;50.76
73566;BME280;61846;52.970;-3.168;2023-07-28T04:27:23;99454.67;;;19.36;48.14
73566;BME280;61846;52.970;-3.168;2023-07-28T04:29:49;99454.55;;;19.18;47.62
73566;BME280;61846;52.970;-3.168;2023-07-28T04:32:14;99455.95;;;18.60;48.34
73566;BME280;61846;52.970;-3.168;2023-07-28T04:34:39;99453.02;;;20.12;45.99
73566;BME280;61846;52.970;-3.168;2023-07-28T04:37:05;99455.61;;;18.58;48.56
73566;BME280;61846;52.970;-3.168;2023-07-28T04:39:30;99450.77;;;20.10;45.38
73566;BME280;61846;52.970;-3.168;2023-07-28T04:41:55;99453.05;;;19.85;45.32
73566;BME280;61846;52.970;-3.168;2023-07-28T04:44:21;99454.44;;;19.93;45.25
73566;BME280;61846;52.970;-3.168;2023-07-28T04:46:46;99452.84;;;20.31;44.79
73566;BME280;61846;52.970;-3.168;2023-07-28T04:49:12;99448.17;;;20.13;44.84
73566;BME280;61846;52.970;-3.168;2023-07-28T04:51:37;99445.62;;;20.98;44.07
73566;BME280;61846;52.970;-3.168;2023-07-28T04:54:03;99444.88;;;20.04;45.38
73566;BME280;61846;52.970;-3.168;2023-07-28T04:56:28;99443.67;;;21.11;44.19
73566;BME280;61846;52.970;-3.168;2023-07-28T04:58:53;99446.44;;;20.12;44.46
73566;BME280;61846;52.970;-3.168;2023-07-28T05:01:19;99442.47;;;20.91;43.79
73566;BME280;61846;52.970;-3.168;2023-07-28T05:03:44;99440.85;;;20.91;43.87
73566;BME280;61846;52.970;-3.168;2023-07-28T05:06:09;99442.56;;;20.83;43.56
73566;BME280;61846;52.970;-3.168;2023-07-28T05:08:35;99447.62;;;19.73;46.38
73566;BME280;61846;52.970;-3.168;2023-07-28T05:11:00;99444.18;;;19.03;46.69
73566;BME280;61846;52.970;-3.168;2023-07-28T05:13:26;99433.01;;;20.44;44.50
73566;BME280;61846;52.970;-3.168;2023-07-28T05:15:51;99428.29;;;19.99;44.80
73566;BME280;61846;52.970;-3.168;2023-07-28T05:18:16;99428.23;;;20.55;44.22
73566;BME280;61846;52.970;-3.168;2023-07-28T05:20:42;99424.79;;;20.92;44.32
73566;BME280;61846;52.970;-3.168;2023-07-28T05:23:07;99426.13;;;20.80;44.58
73566;BME280;61846;52.970;-3.168;2023-07-28T05:25:32;99433.49;;;17.99;48.24
73566;BME280;61846;52.970;-3.168;2023-07-28T05:27:58;99434.06;;;19.27;46.20
73566;BME280;61846;52.970;-3.168;2023-07-28T05:30:23;99428.28;;;20.32;44.42
73566;BME280;61846;52.970;-3.168;2023-07-28T05:32:49;99436.03;;;20.13;44.74
73566;BME280;61846;52.970;-3.168;2023-07-28T05:35:15;99430.37;;;20.41;43.68
73566;BME280;61846;52.970;-3.168;2023-07-28T05:37:39;99430.27;;;21.29;43.04
73566;BME280;61846;52.970;-3.168;2023-07-28T05:40:06;99434.26;;;20.20;43.35
73566;BME280;61846;52.970;-3.168;2023-07-28T05:42:30;99433.69;;;20.69;43.69
73566;BME280;61846;52.970;-3.168;2023-07-28T05:44:55;99437.02;;;20.51;43.39
73566;BME280;61846;52.970;-3.168;2023-07-28T05:47:21;99440.73;;;20.89;42.43
73566;BME280;61846;52.970;-3.168;2023-07-28T05:49:46;99437.87;;;20.97;42.81
73566;BME280;61846;52.970;-3.168;2023-07-28T05:52:11;99433.84;;;20.28;42.67
73566;BME280;61846;52.970;-3.168;2023-07-28T05:54:37;99440.47;;;21.20;41.36
73566;BME280;61846;52.970;-3.168;2023-07-28T05:57:02;99430.49;;;20.67;40.92
73566;BME280;61846;52.970;-3.168;2023-07-28T05:59:28;99438.58;;;20.51;40.82
73566;BME280;61846;52.970;-3.168;2023-07-28T06:01:53;99440.12;;;18.76;43.70
73566;BME280;61846;52.970;-3.168;2023-07-28T06:04:18;99442.73;;;18.24;45.23
73566;BME280;61846;52.970;-3.168;2023-07-28T06:06:44;99431.37;;;19.35;43.65
73566;BME280;61846;52.970;-3.168;2023-07-28T06:09:09;99435.90;;;17.41;46.72
73566;BME280;61846;52.970;-3.168;2023-07-28T06:11:34;99438.03;;;19.11;43.76
73566;BME280;61846;52.970;-3.168;2023-07-28T06:14:00;99433.09;;;18.45;46.02
73566;BME280;61846;52.970;-3.168;2023-07-28T06:16:25;99441.63;;;16.82;49.38
73566;BME280;61846;52.970;-3.168;2023-07-28T06:18:51;99447.43;;;16.79;49.74
73566;BME280;61846;52.970;-3.168;2023-07-28T06:21:16;99445.29;;;18.13;46.61
73566;BME280;61846;52.970;-3.168;2023-07-28T06:23:41;99443.06;;;19.43;44.48
73566;BME280;61846;52.970;-3.168;2023-07-28T06:26:07;99448.38;;;19.51;43.59
73566;BME280;61846;52.970;-3.168;2023-07-28T06:28:32;99441.48;;;19.97;42.86
73566;BME280;61846;52.970;-3.168;2023-07-28T06:30:58;99444.10;;;18.90;44.19
73566;BME280;61846;52.970;-3.168;2023-07-28T06:33:24;99442.27;;;19.54;43.61
73566;BME280;61846;52.970;-3.168;2023-07-28T06:35:49;99444.89;;;19.94;42.56
73566;BME280;61846;52.970;-3.168;2023-07-28T06:38:14;99446.46;;;20.26;41.96
73566;BME280;61846;52.970;-3.168;2023-07-28T06:40:39;99446.89;;;19.01;44.73
73566;BME280;61846;52.970;-3.168;2023-07-28T06:43:05;99453.56;;;18.91;44.29
73566;BME280;61846;52.970;-3.168;2023-07-28T06:45:30;99453.65;;;20.18;42.43
73566;BME280;61846;52.970;-3.168;2023-07-28T06:47:56;99453.75;;;20.28;42.46
73566;BME280;61846;52.970;-3.168;2023-07-28T06:50:21;99447.42;;;20.27;41.42
73566;BME280;61846;52.970;-3.168;2023-07-28T06:52:46;99449.15;;;20.24;42.38
73566;BME280;61846;52.970;-3.168;2023-07-28T06:55:12;99450.49;;;20.86;41.87
73566;BME280;61846;52.970;-3.168;2023-07-28T06:57:37;99452.80;;;20.15;41.31
73566;BME280;61846;52.970;-3.168;2023-07-28T07:00:03;99451.79;;;20.21;41.89
73566;BME280;61846;52.970;-3.168;2023-07-28T07:02:28;99451.44;;;20.24;41.31
73566;BME280;61846;52.970;-3.168;2023-07-28T07:04:53;99456.40;;;20.49;41.19
73566;BME280;61846;52.970;-3.168;2023-07-28T07:07:18;99461.04;;;20.41;42.29
73566;BME280;61846;52.970;-3.168;2023-07-28T07:09:44;99461.96;;;19.70;42.64
73566;BME280;61846;52.970;-3.168;2023-07-28T07:12:09;99456.28;;;19.06;43.80
73566;BME280;61846;52.970;-3.168;2023-07-28T07:14:34;99442.31;;;20.21;41.86
73566;BME280;61846;52.970;-3.168;2023-07-28T07:17:00;99442.28;;;19.29;42.87
73566;BME280;61846;52.970;-3.168;2023-07-28T07:19:26;99445.11;;;19.81;42.33
73566;BME280;61846;52.970;-3.168;2023-07-28T07:21:51;99447.53;;;19.34;42.59
73566;BME280;61846;52.970;-3.168;2023-07-28T07:24:16;99445.64;;;18.99;42.86
73566;BME280;61846;52.970;-3.168;2023-07-28T07:26:41;99447.57;;;19.58;42.23
73566;BME280;61846;52.970;-3.168;2023-07-28T07:29:07;99449.47;;;19.56;42.36
73566;BME280;61846;52.970;-3.168;2023-07-28T07:31:32;99451.13;;;19.50;42.36
73566;BME280;61846;52.970;-3.168;2023-07-28T07:33:57;99452.24;;;19.62;41.84
73566;BME280;61846;52.970;-3.168;2023-07-28T07:36:23;99454.61;;;20.58;41.41
73566;BME280;61846;52.970;-3.168;2023-07-28T07:38:49;99454.21;;;20.83;40.92
73566;BME280;61846;52.970;-3.168;2023-07-28T07:41:14;99456.19;;;20.39;40.74
73566;BME280;61846;52.970;-3.168;2023-07-28T07:43:39;99460.16;;;19.53;42.27
73566;BME280;61846;52.970;-3.168;2023-07-28T07:46:04;99460.44;;;20.66;40.20
73566;BME280;61846;52.970;-3.168;2023-07-28T07:48:30;99463.50;;;20.84;39.69
73566;BME280;61846;52.970;-3.168;2023-07-28T07:50:55;99463.74;;;19.93;41.21
73566;BME280;61846;52.970;-3.168;2023-07-28T07:53:20;99463.56;;;20.93;40.32
73566;BME280;61846;52.970;-3.168;2023-07-28T07:55:46;99463.16;;;20.99;40.18
73566;BME280;61846;52.970;-3.168;2023-07-28T07:58:11;99459.21;;;21.73;38.94
73566;BME280;61846;52.970;-3.168;2023-07-28T08:00:42;99463.76;;;19.47;41.64
73566;BME280;61846;52.970;-3.168;2023-07-28T08:03:02;99464.17;;;20.39;40.19
73566;BME280;61846;52.970;-3.168;2023-07-28T08:05:27;99464.45;;;21.35;39.18
73566;BME280;61846;52.970;-3.168;2023-07-28T08:07:52;99463.61;;;20.35;39.92
73566;BME280;61846;52.970;-3.168;2023-07-28T08:10:18;99461.75;;;21.29;39.17
73566;BME280;61846;52.970;-3.168;2023-07-28T08:12:43;99461.30;;;21.24;38.96
73566;BME280;61846;52.970;-3.168;2023-07-28T08:15:09;99463.69;;;21.24;39.61
73566;BME280;61846;52.970;-3.168;2023-07-28T08:17:34;99468.01;;;21.80;39.06
73566;BME280;61846;52.970;-3.168;2023-07-28T08:19:59;99464.71;;;21.45;38.56
73566;BME280;61846;52.970;-3.168;2023-07-28T08:22:25;99462.58;;;21.50;38.96
73566;BME280;61846;52.970;-3.168;2023-07-28T08:24:50;99467.63;;;21.63;38.40
73566;BME280;61846;52.970;-3.168;2023-07-28T08:27:15;99467.48;;;19.77;41.62
73566;BME280;61846;52.970;-3.168;2023-07-28T08:29:41;99469.96;;;19.83;41.94
73566;BME280;61846;52.970;-3.168;2023-07-28T08:32:07;99467.07;;;19.59;42.49
73566;BME280;61846;52.970;-3.168;2023-07-28T08:34:31;99475.04;;;19.27;43.37
73566;BME280;61846;52.970;-3.168;2023-07-28T08:36:57;99473.00;;;19.95;41.82
73566;BME280;61846;52.970;-3.168;2023-07-28T08:39:22;99472.35;;;20.47;41.44
73566;BME280;61846;52.970;-3.168;2023-07-28T08:41:48;99470.77;;;20.96;40.14
73566;BME280;61846;52.970;-3.168;2023-07-28T08:44:13;99469.37;;;19.91;40.88
73566;BME280;61846;52.970;-3.168;2023-07-28T08:46:38;99476.80;;;18.74;43.71
73566;BME280;61846;52.970;-3.168;2023-07-28T08:49:03;99477.88;;;20.49;41.71
73566;BME280;61846;52.970;-3.168;2023-07-28T08:51:29;99475.51;;;21.27;40.24
73566;BME280;61846;52.970;-3.168;2023-07-28T08:53:54;99478.42;;;21.49;39.03
73566;BME280;61846;52.970;-3.168;2023-07-28T08:56:20;99488.34;;;19.98;41.75
73566;BME280;61846;52.970;-3.168;2023-07-28T08:58:45;99485.48;;;21.35;39.99
73566;BME280;61846;52.970;-3.168;2023-07-28T09:01:10;99488.50;;;21.66;39.27
73566;BME280;61846;52.970;-3.168;2023-07-28T09:03:35;99490.12;;;21.47;38.48
73566;BME280;61846;52.970;-3.168;2023-07-28T09:06:02;99486.66;;;21.66;38.27
73566;BME280;61846;52.970;-3.168;2023-07-28T09:08:26;99487.42;;;20.52;40.40
73566;BME280;61846;52.970;-3.168;2023-07-28T09:10:51;99485.62;;;21.02;39.00
73566;BME280;61846;52.970;-3.168;2023-07-28T09:13:18;99483.44;;;21.76;39.55
73566;BME280;61846;52.970;-3.168;2023-07-28T09:15:42;99480.41;;;21.55;38.67
73566;BME280;61846;52.970;-3.168;2023-07-28T09:18:09;99484.25;;;18.75;43.70
73566;BME280;61846;52.970;-3.168;2023-07-28T09:20:35;99483.07;;;20.84;40.41
73566;BME280;61846;52.970;-3.168;2023-07-28T09:22:58;99481.34;;;20.45;40.85
73566;BME280;61846;52.970;-3.168;2023-07-28T09:25:24;99485.13;;;20.14;40.82
73566;BME280;61846;52.970;-3.168;2023-07-28T09:27:50;99488.82;;;21.06;39.38
73566;BME280;61846;52.970;-3.168;2023-07-28T09:30:14;99483.79;;;21.57;38.98
73566;BME280;61846;52.970;-3.168;2023-07-28T09:32:46;99479.42;;;22.11;37.83
73566;BME280;61846;52.970;-3.168;2023-07-28T09:35:07;99484.57;;;22.05;36.85
73566;BME280;61846;52.970;-3.168;2023-07-28T09:37:30;99485.06;;;22.64;36.14
73566;BME280;61846;52.970;-3.168;2023-07-28T09:39:56;99489.25;;;21.78;37.85
73566;BME280;61846;52.970;-3.168;2023-07-28T09:42:21;99483.94;;;20.34;40.27
73566;BME280;61846;52.970;-3.168;2023-07-28T09:44:46;99487.00;;;20.82;40.17
73566;BME280;61846;52.970;-3.168;2023-07-28T09:47:12;99489.30;;;19.32;41.30
73566;BME280;61846;52.970;-3.168;2023-07-28T09:49:39;99490.30;;;19.76;41.20
73566;BME280;61846;52.970;-3.168;2023-07-28T09:52:05;99497.24;;;20.00;40.63
73566;BME280;61846;52.970;-3.168;2023-07-28T09:54:29;99502.01;;;20.45;39.26
73566;BME280;61846;52.970;-3.168;2023-07-28T09:56:55;99501.79;;;19.51;41.33
73566;BME280;61846;52.970;-3.168;2023-07-28T09:59:19;99506.09;;;20.01;40.81
73566;BME280;61846;52.970;-3.168;2023-07-28T10:01:44;99509.81;;;19.63;40.44
73566;BME280;61846;52.970;-3.168;2023-07-28T10:04:09;99516.08;;;19.05;41.42
73566;BME280;61846;52.970;-3.168;2023-07-28T10:06:35;99513.17;;;19.16;41.85
73566;BME280;61846;52.970;-3.168;2023-07-28T10:09:00;99504.84;;;19.46;40.82
73566;BME280;61846;52.970;-3.168;2023-07-28T10:11:25;99502.26;;;20.55;37.59
73566;BME280;61846;52.970;-3.168;2023-07-28T10:13:51;99503.97;;;20.73;39.64
73566;BME280;61846;52.970;-3.168;2023-07-28T10:16:16;99503.41;;;20.75;38.17
73566;BME280;61846;52.970;-3.168;2023-07-28T10:18:41;99509.82;;;20.26;36.96
73566;BME280;61846;52.970;-3.168;2023-07-28T10:21:09;99503.42;;;19.75;37.84
73566;BME280;61846;52.970;-3.168;2023-07-28T10:23:34;99501.62;;;19.62;38.62
73566;BME280;61846;52.970;-3.168;2023-07-28T10:25:59;99499.43;;;20.29;38.38
73566;BME280;61846;52.970;-3.168;2023-07-28T10:28:27;99493.29;;;20.26;38.56
73566;BME280;61846;52.970;-3.168;2023-07-28T10:30:52;99498.18;;;21.15;35.97
73566;BME280;61846;52.970;-3.168;2023-07-28T10:35:47;99497.20;;;21.01;36.06
73566;BME280;61846;52.970;-3.168;2023-07-28T10:40:32;99508.29;;;20.32;36.36
73566;BME280;61846;52.970;-3.168;2023-07-28T10:42:56;99499.88;;;19.86;37.52
73566;BME280;61846;52.970;-3.168;2023-07-28T10:45:22;99494.28;;;20.41;35.89
73566;BME280;61846;52.970;-3.168;2023-07-28T10:47:46;99493.84;;;20.69;36.57
73566;BME280;61846;52.970;-3.168;2023-07-28T10:50:12;99487.87;;;21.31;36.27
73566;BME280;61846;52.970;-3.168;2023-07-28T10:52:39;99485.29;;;21.87;34.76
73566;BME280;61846;52.970;-3.168;2023-07-28T10:55:02;99486.43;;;22.41;33.23
73566;BME280;61846;52.970;-3.168;2023-07-28T10:57:27;99484.54;;;22.13;32.76
73566;BME280;61846;52.970;-3.168;2023-07-28T10:59:52;99477.95;;;21.46;34.99
73566;BME280;61846;52.970;-3.168;2023-07-28T11:02:18;99481.64;;;21.94;35.10
73566;BME280;61846;52.970;-3.168;2023-07-28T11:04:46;99475.42;;;22.66;33.62
73566;BME280;61846;52.970;-3.168;2023-07-28T11:07:10;99472.95;;;22.14;34.76
73566;BME280;61846;52.970;-3.168;2023-07-28T11:09:34;99476.13;;;22.38;35.25
73566;BME280;61846;52.970;-3.168;2023-07-28T11:11:59;99470.71;;;21.54;34.17
73566;BME280;61846;52.970;-3.168;2023-07-28T11:14:24;99468.72;;;21.53;34.78
73566;BME280;61846;52.970;-3.168;2023-07-28T11:16:51;99467.69;;;21.59;36.09
73566;BME280;61846;52.970;-3.168;2023-07-28T11:19:15;99469.67;;;22.22;34.72
73566;BME280;61846;52.970;-3.168;2023-07-28T11:21:41;99464.54;;;22.30;32.87
73566;BME280;61846;52.970;-3.168;2023-07-28T11:24:07;99471.86;;;22.82;33.74
73566;BME280;61846;52.970;-3.168;2023-07-28T11:26:31;99470.94;;;22.83;33.54
73566;BME280;61846;52.970;-3.168;2023-07-28T11:28:58;99473.67;;;21.99;33.57
73566;BME280;61846;52.970;-3.168;2023-07-28T11:31:24;99467.96;;;22.29;33.03
73566;BME280;61846;52.970;-3.168;2023-07-28T11:33:48;99465.33;;;23.19;32.17
73566;BME280;61846;52.970;-3.168;2023-07-28T11:36:21;99462.65;;;23.41;31.49
73566;BME280;61846;52.970;-3.168;2023-07-28T11:38:38;99455.14;;;23.40;31.78
73566;BME280;61846;52.970;-3.168;2023-07-28T11:41:04;99448.59;;;22.78;32.67
73566;BME280;61846;52.970;-3.168;2023-07-28T11:43:30;99451.36;;;23.22;33.43
73566;BME280;61846;52.970;-3.168;2023-07-28T11:45:55;99448.59;;;24.44;31.67
73566;BME280;61846;52.970;-3.168;2023-07-28T11:48:20;99446.43;;;23.61;32.81
73566;BME280;61846;52.970;-3.168;2023-07-28T11:50:46;99443.33;;;24.45;30.44
73566;BME280;61846;52.970;-3.168;2023-07-28T11:53:12;99448.98;;;23.36;33.91
73566;BME280;61846;52.970;-3.168;2023-07-28T11:55:38;99455.08;;;21.93;34.42
73566;BME280;61846;52.970;-3.168;2023-07-28T11:58:04;99452.37;;;22.58;36.69
73566;BME280;61846;52.970;-3.168;2023-07-28T12:00:30;99451.03;;;23.60;33.36
73566;BME280;61846;52.970;-3.168;2023-07-28T12:03:01;99444.32;;;24.32;30.97
73566;BME280;61846;52.970;-3.168;2023-07-28T12:05:19;99449.66;;;24.33;31.60
73566;BME280;61846;52.970;-3.168;2023-07-28T12:07:47;99452.47;;;24.70;32.53
73566;BME280;61846;52.970;-3.168;2023-07-28T12:10:10;99452.99;;;24.31;31.20
73566;BME280;61846;52.970;-3.168;2023-07-28T12:12:41;99452.09;;;23.92;33.46
73566;BME280;61846;52.970;-3.168;2023-07-28T12:15:00;99456.04;;;23.09;32.96
73566;BME280;61846;52.970;-3.168;2023-07-28T12:17:26;99462.00;;;23.69;34.06
73566;BME280;61846;52.970;-3.168;2023-07-28T12:19:58;99461.46;;;22.54;34.97
73566;BME280;61846;52.970;-3.168;2023-07-28T12:22:16;99467.60;;;21.25;38.35
73566;BME280;61846;52.970;-3.168;2023-07-28T12:24:41;99474.86;;;21.29;38.40
73566;BME280;61846;52.970;-3.168;2023-07-28T12:27:10;99479.83;;;20.37;39.63
73566;BME280;61846;52.970;-3.168;2023-07-28T12:29:33;99496.85;;;20.06;40.27
73566;BME280;61846;52.970;-3.168;2023-07-28T12:31:58;99493.20;;;22.19;37.78
73566;BME280;61846;52.970;-3.168;2023-07-28T12:34:24;99506.19;;;20.38;39.71
73566;BME280;61846;52.970;-3.168;2023-07-28T12:36:49;99506.58;;;18.41;43.87
73566;BME280;61846;52.970;-3.168;2023-07-28T12:39:15;99493.58;;;20.38;41.05
73566;BME280;61846;52.970;-3.168;2023-07-28T12:41:40;99488.13;;;21.73;39.97
73566;BME280;61846;52.970;-3.168;2023-07-28T12:44:06;99496.39;;;21.01;38.88